Time;durP1;ratioP1;P1;durP2;ratioP2;P2;SDS_P1;SDS_P2;PMS_P1;PMS_P2;Temp;Humidity;BMP_temperature;BMP_pressure;BME280_temperature;BME280_humidity;BME280_pressure;Samples;Min_cycle;Max_cycle;Signal;HPM_P1;HPM_P2
2021/05/24 10:24:23;;;;;;;2.75;1.33;;;14.10;90.40;;;;;;6196677;23;20444;-65
2021/05/24 10:26:52;;;;;;;4.13;1.73;;;14.00;90.60;;;;;;6212042;23;20135;-66
2021/05/24 10:29:19;;;;;;;3.80;1.33;;;14.10;90.40;;;;;;6213276;23;20524;-65
2021/05/24 10:31:46;;;;;;;3.10;1.27;;;14.20;90.60;;;;;;6212642;23;20028;-66
2021/05/24 10:34:18;;;;;;;4.70;1.40;;;14.40;90.80;;;;;;6213384;23;20032;-64
2021/05/24 10:36:45;;;;;;;3.83;1.35;;;14.60;90.60;;;;;;6213915;23;20059;-67
2021/05/24 10:39:20;;;;;;;2.03;1.20;;;14.90;90.60;;;;;;6213330;23;20028;-67
2021/05/24 10:42:05;;;;;;;2.65;1.30;;;15.20;90.50;;;;;;6213180;23;20126;-67
2021/05/24 10:44:46;;;;;;;4.63;1.60;;;15.60;90.00;;;;;;6212886;23;20322;-64
2021/05/24 10:47:25;;;;;;;5.53;1.50;;;15.90;88.50;;;;;;6213855;23;20452;-64
2021/05/24 10:50:07;;;;;;;4.72;1.27;;;16.20;88.10;;;;;;6212906;23;20459;-65
2021/05/24 10:52:35;;;;;;;4.32;1.40;;;16.30;87.30;;;;;;6212124;23;20084;-65
2021/05/24 10:55:27;;;;;;;4.10;1.70;;;16.40;86.70;;;;;;6213463;23;20337;-66
2021/05/24 10:58:11;;;;;;;2.67;1.50;;;16.40;86.50;;;;;;6213438;23;20417;-64
2021/05/24 11:01:01;;;;;;;4.72;1.38;;;16.30;85.20;;;;;;6213246;23;20449;-65
2021/05/24 11:03:27;;;;;;;4.05;1.20;;;16.30;85.50;;;;;;6213788;23;20425;-63
2021/05/24 11:06:13;;;;;;;2.67;1.52;;;16.20;86.30;;;;;;6212345;23;20488;-63
2021/05/24 11:08:43;;;;;;;2.58;1.20;;;16.10;86.60;;;;;;6213374;23;20008;-63
2021/05/24 11:11:30;;;;;;;2.88;1.33;;;15.90;85.90;;;;;;6213435;23;20036;-63
2021/05/24 11:14:08;;;;;;;2.30;1.35;;;15.70;87.10;;;;;;6212486;23;20421;-62
2021/05/24 11:16:35;;;;;;;2.17;1.08;;;15.50;88.00;;;;;;6213108;23;20079;-66
2021/05/24 11:19:08;;;;;;;2.13;1.52;;;15.40;87.80;;;;;;6212928;23;20439;-64
2021/05/24 11:21:35;;;;;;;1.92;1.10;;;15.30;89.00;;;;;;6186820;23;20012;-64
2021/05/24 11:24:08;;;;;;;3.33;1.20;;;15.40;89.70;;;;;;6190285;23;20028;-64
2021/05/24 11:26:37;;;;;;;1.10;1.00;;;15.60;90.00;;;;;;6181115;23;20492;-64
2021/05/24 11:29:12;;;;;;;0.90;0.90;;;15.80;89.20;;;;;;6183096;23;20040;-62
2021/05/24 11:31:38;;;;;;;1.15;0.80;;;16.10;88.30;;;;;;6156777;23;20139;-64
2021/05/24 11:34:05;;;;;;;1.73;0.95;;;16.20;86.90;;;;;;6182012;23;20249;-64
2021/05/24 11:36:40;;;;;;;1.80;1.00;;;16.30;87.10;;;;;;6183313;23;20005;-63
2021/05/24 11:39:11;;;;;;;2.17;1.00;;;16.40;86.80;;;;;;6183324;23;20012;-63
2021/05/24 11:41:49;;;;;;;3.08;1.17;;;16.50;86.30;;;;;;6182348;23;20005;-64
2021/05/24 11:44:15;;;;;;;1.40;0.90;;;16.60;85.90;;;;;;6182537;23;20012;-62
2021/05/24 11:46:41;;;;;;;1.55;0.88;;;16.70;84.70;;;;;;6183038;23;20005;-62
2021/05/24 11:49:07;;;;;;;1.00;0.75;;;16.70;85.50;;;;;;6155691;23;20398;-64
2021/05/24 11:51:34;;;;;;;1.20;0.75;;;16.80;86.00;;;;;;6182705;23;20077;-62
2021/05/24 11:54:06;;;;;;;1.33;0.82;;;17.00;85.70;;;;;;6156547;23;19997;-62
2021/05/24 11:56:36;;;;;;;;;;;17.20;85.50;;;;;;6182651;23;20009;-63
2021/05/24 11:59:04;;;;;;;1.80;1.00;;;17.40;85.50;;;;;;6183247;23;19978;-63
2021/05/24 12:01:31;;;;;;;2.70;0.88;;;17.50;84.10;;;;;;6182625;23;20021;-65
2021/05/24 12:03:56;;;;;;;0.73;0.73;;;17.60;83.30;;;;;;6183262;23;20046;-64
2021/05/24 12:06:23;;;;;;;1.38;0.98;;;17.60;82.40;;;;;;6183580;23;20059;-64
2021/05/24 12:08:50;;;;;;;4.80;0.80;;;17.70;82.30;;;;;;6181892;23;20004;-65
2021/05/24 12:11:16;;;;;;;0.60;0.60;;;17.80;81.60;;;;;;6183040;23;20013;-64
2021/05/24 12:14:01;;;;;;;1.02;0.60;;;17.80;80.20;;;;;;6182601;23;20072;-65
2021/05/24 12:16:28;;;;;;;1.15;0.73;;;17.70;80.10;;;;;;6182794;23;20001;-63
2021/05/24 12:18:59;;;;;;;0.98;0.65;;;17.60;79.20;;;;;;6182903;23;20382;-63
2021/05/24 12:21:35;;;;;;;0.57;0.55;;;17.40;80.40;;;;;;6183694;23;20365;-63
2021/05/24 12:24:06;;;;;;;1.73;1.02;;;17.20;79.70;;;;;;6181927;23;20349;-66
2021/05/24 12:26:33;;;;;;;0.65;0.60;;;17.00;79.90;;;;;;6156422;23;20005;-64
2021/05/24 12:28:59;;;;;;;0.98;0.73;;;16.90;79.70;;;;;;6182833;23;20318;-63
2021/05/24 12:31:27;;;;;;;3.88;0.90;;;16.70;80.30;;;;;;6182606;23;20013;-63
2021/05/24 12:33:53;;;;;;;1.10;0.80;;;16.60;81.70;;;;;;6182647;23;20088;-64
2021/05/24 12:36:20;;;;;;;1.25;0.70;;;16.70;83.20;;;;;;6182763;23;20342;-67
2021/05/24 12:38:50;;;;;;;1.35;0.85;;;16.90;82.70;;;;;;6182141;23;20004;-68
2021/05/24 12:41:18;;;;;;;2.60;0.80;;;17.10;83.10;;;;;;6182996;23;20001;-66
2021/05/24 12:43:50;;;;;;;1.45;0.75;;;17.30;81.80;;;;;;6181756;23;20005;-67
2021/05/24 12:46:17;;;;;;;1.25;0.70;;;17.40;83.00;;;;;;6182803;23;20044;-63
2021/05/24 12:48:44;;;;;;;1.15;0.88;;;17.50;81.60;;;;;;6182581;23;20005;-67
2021/05/24 12:51:19;;;;;;;1.08;0.70;;;17.40;80.70;;;;;;6182111;23;20009;-66
2021/05/24 12:54:07;;;;;;;1.33;0.80;;;17.40;81.60;;;;;;6182549;23;20016;-66
2021/05/24 12:56:39;;;;;;;2.03;0.90;;;17.50;81.60;;;;;;6182628;23;20087;-66
2021/05/24 12:59:12;;;;;;;;;;;17.40;81.00;;;;;;6182663;23;20059;-67
2021/05/24 13:01:38;;;;;;;1.00;0.90;;;17.50;80.70;;;;;;6182676;23;19947;-67
2021/05/24 13:04:04;;;;;;;1.55;0.68;;;17.50;79.80;;;;;;6156249;23;20084;-68
2021/05/24 13:06:42;;;;;;;1.83;0.90;;;17.30;79.60;;;;;;6182758;23;20380;-66
2021/05/24 13:09:14;;;;;;;2.13;1.00;;;17.20;79.70;;;;;;6182982;23;20428;-67
2021/05/24 13:12:08;;;;;;;1.25;0.85;;;17.00;80.90;;;;;;6181950;23;20008;-66
2021/05/24 13:14:40;;;;;;;0.82;0.82;;;16.90;80.80;;;;;;6182430;23;20037;-65
2021/05/24 13:17:25;;;;;;;2.25;0.80;;;16.80;80.00;;;;;;6182938;23;20084;-65
2021/05/24 13:20:16;;;;;;;1.52;0.60;;;16.80;80.40;;;;;;6181662;23;20001;-66
2021/05/24 13:31:10;;;;;;;1.15;1.05;;;16.50;79.60;;;;;;6182899;23;20017;-63
2021/05/24 13:33:36;;;;;;;4.90;1.38;;;16.10;81.10;;;;;;6181315;23;20023;-63
2021/05/24 13:36:27;;;;;;;3.38;1.15;;;15.90;83.40;;;;;;6182456;23;20092;-63
2021/05/24 13:39:04;;;;;;;2.03;1.20;;;15.60;84.90;;;;;;6182570;23;20024;-63
2021/05/24 13:41:31;;;;;;;2.58;1.35;;;15.50;85.00;;;;;;6182168;23;20005;-63
2021/05/24 13:43:58;;;;;;;1.75;1.35;;;15.60;86.30;;;;;;6182470;23;20436;-64
2021/05/24 13:46:26;;;;;;;2.20;1.52;;;15.70;85.50;;;;;;6182919;23;20013;-63
2021/05/24 13:48:52;;;;;;;2.35;1.30;;;15.90;84.90;;;;;;6181507;23;20058;-63
2021/05/24 13:51:18;;;;;;;1.80;1.27;;;16.20;85.10;;;;;;6182474;23;20016;-63
2021/05/24 13:53:44;;;;;;;3.00;1.33;;;16.40;84.40;;;;;;6182267;23;20001;-63
2021/05/24 13:56:10;;;;;;;1.45;1.35;;;16.70;84.40;;;;;;6182948;23;20421;-64
2021/05/24 13:58:35;;;;;;;1.42;1.20;;;16.80;83.10;;;;;;6184014;23;20084;-64
2021/05/24 14:01:02;;;;;;;2.28;1.40;;;16.90;81.30;;;;;;6183566;23;20032;-64
2021/05/24 14:03:27;;;;;;;3.60;1.80;;;17.10;81.00;;;;;;6184581;23;20013;-64
2021/05/24 14:05:53;;;;;;;2.55;1.20;;;17.40;81.70;;;;;;6184199;23;20001;-63
2021/05/24 14:08:18;;;;;;;2.30;1.50;;;17.60;80.90;;;;;;6183787;23;20375;-64
2021/05/24 14:10:46;;;;;;;1.60;1.38;;;17.70;80.20;;;;;;6183870;23;20039;-63
2021/05/24 14:13:15;;;;;;;1.38;1.23;;;17.80;80.20;;;;;;6184115;23;19997;-63
2021/05/24 14:15:41;;;;;;;1.20;1.10;;;17.80;77.90;;;;;;6183321;23;20036;-63
2021/05/24 14:18:07;;;;;;;1.73;1.20;;;17.90;77.30;;;;;;6184426;23;20318;-64
2021/05/24 14:20:32;;;;;;;1.25;1.15;;;17.90;78.10;;;;;;6184137;23;20414;-63
2021/05/24 14:22:58;;;;;;;1.88;1.40;;;18.00;76.90;;;;;;6183314;23;20040;-64
2021/05/24 14:25:23;;;;;;;1.63;1.35;;;18.10;76.70;;;;;;6157739;23;20005;-64
2021/05/24 14:27:49;;;;;;;1.88;1.02;;;18.30;75.50;;;;;;6184152;23;20088;-63
2021/05/24 14:30:15;;;;;;;2.85;1.33;;;18.40;75.00;;;;;;6183276;23;20050;-63
2021/05/24 14:32:40;;;;;;;1.38;1.27;;;18.50;74.50;;;;;;6183842;23;20007;-62
2021/05/24 14:35:07;;;;;;;2.53;1.60;;;18.50;72.80;;;;;;6183871;23;20036;-64
2021/05/24 14:37:34;;;;;;;1.90;1.42;;;18.50;73.30;;;;;;6156605;23;20024;-66
2021/05/24 14:39:59;;;;;;;3.63;1.20;;;18.40;73.00;;;;;;6183936;23;20377;-65
2021/05/24 14:42:25;;;;;;;2.33;1.52;;;18.20;71.70;;;;;;6184120;23;20076;-65
2021/05/24 14:44:51;;;;;;;4.53;1.40;;;18.00;71.90;;;;;;6182639;23;20461;-66
2021/05/24 14:47:17;;;;;;;1.88;1.40;;;17.90;73.50;;;;;;6184046;23;19998;-65
2021/05/24 14:49:42;;;;;;;2.03;1.30;;;17.70;72.90;;;;;;6183708;23;20013;-64
2021/05/24 14:52:09;;;;;;;2.38;1.65;;;17.60;72.20;;;;;;6183215;23;20072;-67
2021/05/24 14:54:35;;;;;;;3.03;1.50;;;17.50;71.70;;;;;;6183431;23;20088;-66
2021/05/24 14:57:01;;;;;;;2.40;1.58;;;17.50;69.90;;;;;;6183912;23;20009;-67
2021/05/24 14:59:27;;;;;;;1.80;1.60;;;17.60;71.50;;;;;;6183533;23;20012;-67
2021/05/24 15:01:53;;;;;;;4.97;1.70;;;17.70;70.60;;;;;;6183292;23;20103;-66
2021/05/24 15:04:19;;;;;;;1.85;1.70;;;17.90;71.20;;;;;;6183065;23;20822;-66
2021/05/24 15:06:45;;;;;;;4.35;1.50;;;18.00;71.80;;;;;;6183299;23;20079;-65
2021/05/24 15:09:10;;;;;;;2.15;1.40;;;18.00;71.30;;;;;;6183418;23;20056;-67
2021/05/24 15:11:36;;;;;;;2.22;1.67;;;18.10;72.30;;;;;;6182640;23;20013;-66
2021/05/24 15:14:02;;;;;;;1.40;1.30;;;18.10;74.20;;;;;;6183448;23;20001;-66
2021/05/24 15:16:28;;;;;;;1.60;1.50;;;18.10;73.30;;;;;;6184098;23;20087;-67
2021/05/24 15:18:54;;;;;;;1.92;1.42;;;18.20;74.30;;;;;;6182723;23;20380;-67
2021/05/24 15:21:20;;;;;;;2.50;1.60;;;18.40;73.50;;;;;;6183733;23;20001;-68
2021/05/24 15:23:45;;;;;;;1.90;1.40;;;18.60;72.90;;;;;;6183043;23;20017;-65
2021/05/24 15:26:11;;;;;;;1.30;1.20;;;18.80;71.50;;;;;;6182942;23;20389;-63
2021/05/24 15:28:41;;;;;;;2.63;1.45;;;18.90;69.70;;;;;;6183268;23;20016;-63
2021/05/24 15:31:06;;;;;;;2.88;1.42;;;18.90;68.60;;;;;;6183288;23;20041;-63
2021/05/24 15:33:32;;;;;;;3.63;1.83;;;18.80;68.40;;;;;;6182647;23;20004;-62
2021/05/24 15:35:59;;;;;;;2.28;1.73;;;18.70;68.40;;;;;;6183588;23;20032;-63
2021/05/24 15:38:29;;;;;;;1.80;1.10;;;18.50;69.70;;;;;;6183599;23;20059;-63
2021/05/24 15:40:55;;;;;;;2.13;1.10;;;18.50;70.40;;;;;;6181944;23;20005;-63
2021/05/24 15:43:20;;;;;;;2.03;1.17;;;18.40;69.10;;;;;;6181164;23;20012;-64
2021/05/24 15:45:46;;;;;;;2.92;1.45;;;18.40;69.60;;;;;;6179134;23;20043;-65
2021/05/24 15:48:11;;;;;;;1.63;1.33;;;18.30;68.60;;;;;;6177923;23;20009;-64
2021/05/24 15:50:37;;;;;;;1.50;1.40;;;18.20;68.60;;;;;;6178922;23;20321;-64
2021/05/24 15:53:03;;;;;;;1.30;1.17;;;18.20;69.30;;;;;;6178371;23;20004;-66
2021/05/24 15:55:31;;;;;;;2.55;1.30;;;18.10;69.30;;;;;;6177933;23;20009;-65
2021/05/24 15:57:57;;;;;;;1.42;1.23;;;17.90;70.90;;;;;;6178542;23;20005;-66
2021/05/24 16:00:23;;;;;;;4.93;1.55;;;17.70;71.00;;;;;;6178302;23;20024;-65
2021/05/24 16:02:49;;;;;;;3.50;1.52;;;17.50;71.90;;;;;;6177877;23;20047;-66
2021/05/24 16:05:15;;;;;;;1.92;1.55;;;17.50;73.20;;;;;;6178681;23;20009;-63
2021/05/24 16:07:41;;;;;;;3.95;1.50;;;17.70;73.00;;;;;;6177531;23;20024;-64
2021/05/24 16:10:07;;;;;;;1.92;1.52;;;17.90;71.70;;;;;;6178417;23;20020;-65
2021/05/24 16:12:33;;;;;;;2.17;1.58;;;18.20;70.50;;;;;;6178468;23;20315;-65
2021/05/24 16:14:59;;;;;;;1.80;1.40;;;18.60;71.00;;;;;;6177155;23;20012;-64
2021/05/24 16:17:24;;;;;;;2.08;1.33;;;19.40;69.70;;;;;;6153214;23;20445;-63
2021/05/24 16:19:52;;;;;;;2.38;1.35;;;21.30;66.20;;;;;;6151574;23;20541;-64
2021/05/24 16:22:18;;;;;;;1.33;1.23;;;22.60;62.80;;;;;;6177573;23;20063;-65
2021/05/24 16:27:21;;;;;;;2.55;1.10;;;26.00;54.20;;;;;;6188312;23;20009;-63
2021/05/24 16:29:47;;;;;;;2.20;1.48;;;27.60;51.80;;;;;;6151002;23;20032;-62
2021/05/24 16:32:13;;;;;;;3.30;1.48;;;28.70;48.20;;;;;;6178573;23;19997;-64
2021/05/24 16:34:38;;;;;;;1.92;1.10;;;29.60;46.80;;;;;;6178187;23;20005;-63
2021/05/24 16:37:04;;;;;;;1.13;0.98;;;30.10;44.50;;;;;;6177606;23;20009;-64
2021/05/24 16:39:32;;;;;;;2.03;1.35;;;30.00;44.40;;;;;;6178508;23;20005;-65
2021/05/24 16:42:03;;;;;;;1.58;0.93;;;29.40;42.80;;;;;;6178850;23;20005;-64
2021/05/24 16:44:28;;;;;;;6.72;1.20;;;27.90;44.30;;;;;;6176593;23;20001;-64
2021/05/24 16:46:54;;;;;;;2.50;1.02;;;26.90;46.10;;;;;;6177044;23;20001;-65
2021/05/24 16:49:20;;;;;;;1.85;1.20;;;26.70;48.00;;;;;;6178266;23;20441;-67
2021/05/24 16:51:49;;;;;;;1.65;0.98;;;26.80;48.40;;;;;;6177176;23;20295;-70
2021/05/24 16:54:16;;;;;;;1.15;1.02;;;27.70;46.60;;;;;;6152002;23;20009;-65
2021/05/24 16:56:44;;;;;;;1.05;1.00;;;28.00;43.90;;;;;;6150801;23;20013;-65
2021/05/24 16:59:10;;;;;;;1.20;0.80;;;27.40;43.80;;;;;;6178187;23;20007;-68
2021/05/24 17:01:37;;;;;;;1.05;0.95;;;26.10;46.40;;;;;;6177787;23;20009;-67
2021/05/24 17:04:04;;;;;;;3.15;1.13;;;25.90;48.90;;;;;;6177614;23;20337;-68
2021/05/24 17:06:30;;;;;;;1.92;1.10;;;26.50;48.00;;;;;;6178257;23;20028;-67
2021/05/24 17:08:56;;;;;;;1.40;1.30;;;25.90;48.00;;;;;;6178111;23;20059;-68
2021/05/24 17:11:24;;;;;;;1.35;1.25;;;25.00;48.10;;;;;;6177448;23;20509;-68
2021/05/24 17:13:51;;;;;;;4.13;1.00;;;24.10;50.70;;;;;;6177167;23;20001;-65
2021/05/24 17:16:17;;;;;;;3.35;1.35;;;24.30;52.20;;;;;;6178286;23;20088;-69
2021/05/24 17:18:43;;;;;;;3.00;1.33;;;23.80;53.20;;;;;;6177715;23;20024;-69
2021/05/24 17:21:08;;;;;;;1.23;1.05;;;23.10;53.10;;;;;;6154386;23;20445;-70
2021/05/24 17:23:34;;;;;;;1.98;1.20;;;22.40;54.10;;;;;;6181955;23;20021;-71
2021/05/24 17:26:00;;;;;;;2.83;1.30;;;22.90;53.90;;;;;;6181659;23;20019;-71
2021/05/24 17:28:26;;;;;;;3.42;1.00;;;23.90;51.50;;;;;;6182544;23;20029;-71
2021/05/24 17:30:51;;;;;;;1.85;1.20;;;24.90;49.60;;;;;;6182574;23;20015;-70
2021/05/24 17:33:17;;;;;;;1.73;0.98;;;25.80;46.40;;;;;;6183245;23;20031;-71
2021/05/24 17:35:42;;;;;;;2.40;0.90;;;26.00;45.90;;;;;;6183608;23;20051;-70
2021/05/24 17:38:08;;;;;;;2.53;0.90;;;26.30;45.50;;;;;;6183974;23;20001;-72
2021/05/24 17:40:34;;;;;;;1.27;1.00;;;26.50;44.50;;;;;;6183275;23;20379;-71
2021/05/24 17:43:01;;;;;;;3.67;1.45;;;25.50;44.60;;;;;;6183495;23;20036;-70
2021/05/24 17:45:28;;;;;;;2.95;0.98;;;24.20;47.00;;;;;;6183833;23;20001;-73
2021/05/24 17:47:55;;;;;;;2.53;1.20;;;22.90;49.70;;;;;;6182989;23;20076;-72
2021/05/24 17:55:16;;;;;;;1.27;1.10;;;20.30;56.60;;;;;;6183784;23;20009;-67
2021/05/24 17:57:42;;;;;;;1.80;1.10;;;19.70;58.60;;;;;;6157270;23;20001;-68
2021/05/24 18:00:08;;;;;;;1.73;1.48;;;19.20;61.20;;;;;;6183647;23;20008;-71
2021/05/24 18:02:34;;;;;;;2.13;1.15;;;18.70;61.90;;;;;;6183429;23;20350;-67
2021/05/24 18:05:00;;;;;;;1.77;1.38;;;18.40;62.50;;;;;;6184062;23;20060;-64
2021/05/24 18:07:26;;;;;;;6.55;1.67;;;18.00;63.00;;;;;;6157444;23;20029;-63
2021/05/24 18:09:51;;;;;;;4.40;1.50;;;17.80;62.90;;;;;;6156775;23;20009;-66
2021/05/24 18:12:17;;;;;;;4.13;1.35;;;17.30;63.20;;;;;;6183138;23;20081;-69
2021/05/24 18:14:43;;;;;;;1.55;1.08;;;16.90;64.80;;;;;;6182448;23;20005;-67
2021/05/24 18:17:08;;;;;;;2.60;1.67;;;16.30;65.60;;;;;;6183285;23;20001;-65
2021/05/24 18:19:34;;;;;;;2.92;1.30;;;15.80;68.00;;;;;;6183473;23;19994;-66
2021/05/24 18:21:59;;;;;;;1.67;1.10;;;15.30;69.60;;;;;;6157163;23;20055;-65
2021/05/24 18:24:25;;;;;;;3.15;1.77;;;15.00;71.60;;;;;;6183709;23;20365;-64
2021/05/24 18:26:52;;;;;;;2.88;1.25;;;14.70;73.20;;;;;;6183527;23;20386;-65
2021/05/24 18:29:18;;;;;;;3.58;1.23;;;14.50;74.40;;;;;;6182533;23;20007;-69
2021/05/24 18:31:44;;;;;;;3.60;1.52;;;14.30;75.70;;;;;;6182992;23;20088;-65
2021/05/24 18:34:11;;;;;;;1.65;1.13;;;14.10;76.50;;;;;;6157530;23;20008;-65
2021/05/24 18:36:37;;;;;;;2.05;1.25;;;13.90;77.30;;;;;;6182545;23;20063;-70
2021/05/24 18:39:06;;;;;;;1.63;1.20;;;13.80;78.60;;;;;;6155166;23;20426;-65
2021/05/24 18:41:32;;;;;;;2.05;1.65;;;13.70;79.20;;;;;;6179360;23;20374;-65
2021/05/24 18:43:59;;;;;;;4.13;1.20;;;13.60;79.90;;;;;;6178398;23;20005;-65
2021/05/24 18:46:25;;;;;;;3.05;1.90;;;13.50;81.80;;;;;;6180637;23;20013;-66
2021/05/24 18:48:51;;;;;;;5.07;1.83;;;13.30;83.80;;;;;;6179199;23;20001;-65
2021/05/24 18:51:17;;;;;;;3.00;1.67;;;13.30;86.10;;;;;;6152180;23;20020;-65
2021/05/24 18:53:44;;;;;;;2.67;1.33;;;13.20;86.60;;;;;;6179581;23;20001;-65
2021/05/24 18:56:12;;;;;;;2.97;1.77;;;13.00;87.30;;;;;;6178982;23;20059;-65
2021/05/24 18:58:40;;;;;;;1.98;1.77;;;12.80;88.40;;;;;;6179204;23;20473;-66
2021/05/24 19:01:06;;;;;;;5.32;2.03;;;12.70;90.10;;;;;;6179562;23;20092;-66
2021/05/24 19:03:33;;;;;;;5.45;2.38;;;12.60;90.90;;;;;;6178852;23;20076;-66
2021/05/24 19:06:14;;;;;;;4.20;2.10;;;12.60;91.00;;;;;;6179550;23;20012;-66
2021/05/24 19:08:42;;;;;;;8.52;2.70;;;12.60;91.30;;;;;;6178752;23;20035;-65
2021/05/24 19:11:08;;;;;;;3.63;2.60;;;12.60;91.40;;;;;;6178970;23;20444;-68
2021/05/24 19:13:37;;;;;;;3.80;2.30;;;12.60;91.50;;;;;;6182959;23;20001;-65
2021/05/24 19:16:03;;;;;;;4.50;2.30;;;12.60;91.50;;;;;;6183283;23;20076;-64
2021/05/24 19:18:29;;;;;;;8.25;2.67;;;12.60;91.50;;;;;;6183320;23;20001;-67
2021/05/24 19:20:55;;;;;;;63.28;6.50;;;12.50;91.50;;;;;;6182735;23;20055;-65
2021/05/24 19:23:22;;;;;;;3.63;2.22;;;12.30;91.80;;;;;;6183444;23;20091;-67
2021/05/24 19:25:48;;;;;;;3.53;2.38;;;12.20;92.30;;;;;;6182130;23;19997;-65
2021/05/24 19:28:16;;;;;;;2.35;1.90;;;12.20;92.50;;;;;;6183355;23;20005;-67
2021/05/24 19:30:43;;;;;;;5.13;2.15;;;12.20;92.50;;;;;;6182859;23;20009;-68
2021/05/24 19:33:09;;;;;;;2.28;1.75;;;12.20;92.60;;;;;;6182423;23;20008;-68
2021/05/24 19:35:37;;;;;;;3.08;2.00;;;12.20;92.60;;;;;;6182941;23;20436;-66
2021/05/24 19:38:03;;;;;;;1.88;1.63;;;12.20;92.40;;;;;;6157012;23;20322;-66
2021/05/24 19:40:29;;;;;;;4.07;1.95;;;12.10;92.30;;;;;;6182653;23;20004;-66
2021/05/24 19:42:55;;;;;;;2.50;2.00;;;12.10;92.20;;;;;;6183267;23;20009;-65
2021/05/24 19:45:22;;;;;;;2.45;2.20;;;12.10;92.60;;;;;;6157082;23;20001;-68
2021/05/24 20:23:37;;;;;;;4.85;2.50;;;12.10;94.00;;;;;;6183257;23;20397;-65
2021/05/24 20:26:03;;;;;;;6.63;2.72;;;12.10;94.10;;;;;;6183010;23;20048;-67
2021/05/24 20:28:29;;;;;;;3.10;2.25;;;12.10;94.10;;;;;;6182428;23;20001;-65
2021/05/24 20:30:54;;;;;;;2.85;2.65;;;12.10;94.10;;;;;;6156494;23;20068;-65
2021/05/24 20:33:20;;;;;;;3.67;2.60;;;12.10;94.10;;;;;;6156595;23;20307;-64
2021/05/24 20:35:46;;;;;;;2.95;2.58;;;12.10;94.20;;;;;;6155535;23;20005;-65
2021/05/24 20:38:12;;;;;;;4.95;2.60;;;12.10;94.30;;;;;;6182931;23;20007;-67
2021/05/24 20:40:38;;;;;;;3.75;2.78;;;12.10;94.30;;;;;;6182737;23;20005;-65
2021/05/24 20:43:03;;;;;;;2.15;1.85;;;12.10;94.30;;;;;;6181888;23;20044;-63
2021/05/24 20:45:31;;;;;;;3.08;2.00;;;12.00;94.20;;;;;;6182649;23;20032;-63
2021/05/24 20:47:57;;;;;;;2.80;1.92;;;12.00;94.20;;;;;;6156392;23;20376;-65
2021/05/24 20:50:22;;;;;;;3.20;1.98;;;12.00;94.40;;;;;;6182046;23;20009;-65
2021/05/24 20:52:48;;;;;;;2.75;1.98;;;11.90;94.50;;;;;;6182627;23;20036;-64
2021/05/24 20:55:14;;;;;;;3.88;2.08;;;11.90;94.50;;;;;;6182737;23;20001;-64
2021/05/24 20:57:39;;;;;;;4.10;2.40;;;11.90;94.40;;;;;;6181916;23;20418;-64
2021/05/24 21:00:07;;;;;;;5.55;2.65;;;11.90;94.40;;;;;;6182682;23;20008;-64
2021/05/24 21:02:33;;;;;;;3.85;2.83;;;12.00;94.30;;;;;;6182544;23;20446;-65
2021/05/24 21:05:00;;;;;;;4.47;3.22;;;11.90;94.20;;;;;;6181973;23;20047;-65
2021/05/24 21:07:26;;;;;;;4.45;3.33;;;11.90;94.30;;;;;;6185189;23;19997;-66
2021/05/24 21:09:53;;;;;;;4.10;3.03;;;11.90;94.20;;;;;;6183805;23;20059;-67
2021/05/24 21:12:18;;;;;;;4.50;3.00;;;11.90;94.20;;;;;;6184967;23;20555;-64
2021/05/24 21:14:44;;;;;;;7.35;3.85;;;11.80;94.40;;;;;;6184486;23;20411;-65
2021/05/24 21:17:10;;;;;;;3.65;3.28;;;11.80;94.70;;;;;;6184151;23;20007;-63
2021/05/24 21:19:36;;;;;;;4.88;3.50;;;11.80;94.80;;;;;;6184674;23;20080;-66
2021/05/24 21:22:02;;;;;;;4.30;3.25;;;11.80;94.90;;;;;;6184845;23;20007;-66
2021/05/24 21:24:27;;;;;;;7.97;3.55;;;11.80;95.00;;;;;;6174384;23;20020;-65
2021/05/24 21:26:53;;;;;;;4.90;3.45;;;11.80;95.20;;;;;;6183060;23;20005;-65
2021/05/24 21:29:19;;;;;;;7.57;3.78;;;11.80;95.20;;;;;;6184492;23;20043;-65
2021/05/24 21:31:46;;;;;;;5.80;3.80;;;11.80;95.30;;;;;;6183919;23;20047;-64
2021/05/24 21:36:56;;;;;;;5.78;3.63;;;11.90;95.30;;;;;;6184565;23;20140;-65
2021/05/24 21:39:21;;;;;;;9.50;4.05;;;11.80;95.40;;;;;;6182521;23;20430;-67
2021/05/24 21:41:47;;;;;;;7.38;3.80;;;11.80;95.40;;;;;;6184385;23;20012;-68
2021/05/24 21:44:12;;;;;;;4.85;3.00;;;11.80;95.40;;;;;;6184515;23;19997;-66
2021/05/24 21:46:38;;;;;;;3.80;3.30;;;11.80;95.50;;;;;;6183805;23;20001;-68
2021/05/24 21:49:04;;;;;;;3.58;3.28;;;11.80;95.60;;;;;;6184633;23;19997;-67
2021/05/24 21:51:30;;;;;;;5.63;3.25;;;11.80;95.50;;;;;;6184772;23;20422;-66
2021/05/24 21:53:58;;;;;;;5.25;3.42;;;11.80;95.60;;;;;;6183718;23;20004;-65
2021/05/24 21:56:24;;;;;;;4.50;3.30;;;11.80;95.70;;;;;;6184996;23;20012;-63
2021/05/24 21:58:49;;;;;;;5.63;3.28;;;11.70;95.60;;;;;;6182749;23;20001;-64
2021/05/24 22:01:17;;;;;;;5.68;3.10;;;11.70;95.70;;;;;;6183740;23;20076;-65
2021/05/24 22:03:43;;;;;;;3.30;3.00;;;11.70;95.70;;;;;;6184130;23;20005;-64
2021/05/24 22:06:08;;;;;;;3.22;2.92;;;11.80;95.80;;;;;;6182537;23;19997;-66
2021/05/24 22:08:34;;;;;;;3.80;3.35;;;11.70;95.70;;;;;;6184209;23;20008;-65
2021/05/24 22:10:59;;;;;;;4.70;3.20;;;11.70;95.60;;;;;;6182630;23;20330;-66
2021/05/24 22:13:25;;;;;;;3.20;2.90;;;11.60;95.70;;;;;;6183828;23;20008;-64
2021/05/24 22:15:50;;;;;;;4.63;3.28;;;11.60;95.70;;;;;;6182454;23;20496;-65
2021/05/24 22:18:16;;;;;;;4.38;3.25;;;11.60;95.70;;;;;;6181535;23;20087;-64
2021/05/24 22:20:46;;;;;;;3.55;3.03;;;11.60;95.80;;;;;;6182762;23;20034;-66
2021/05/24 22:23:11;;;;;;;3.47;3.05;;;11.60;95.90;;;;;;6184270;23;20342;-65
2021/05/24 22:25:37;;;;;;;3.65;3.33;;;11.60;95.90;;;;;;6183534;23;20004;-67
2021/05/24 22:28:03;;;;;;;5.88;3.40;;;11.60;95.90;;;;;;6156675;23;20422;-67
2021/05/24 22:30:29;;;;;;;3.78;3.20;;;11.60;95.80;;;;;;6184184;23;20040;-64
2021/05/24 22:32:56;;;;;;;6.65;3.60;;;11.60;95.90;;;;;;6184294;23;20009;-64
2021/05/24 22:35:22;;;;;;;6.00;3.50;;;11.60;95.90;;;;;;6183349;23;20425;-67
2021/05/24 22:37:48;;;;;;;3.65;3.15;;;11.60;95.90;;;;;;6184020;23;20009;-65
2021/05/24 22:40:15;;;;;;;5.32;3.90;;;11.60;95.90;;;;;;6184233;23;20001;-66
2021/05/24 22:42:41;;;;;;;4.50;4.03;;;11.60;95.90;;;;;;6183051;23;20027;-66
2021/05/24 22:45:08;;;;;;;4.97;3.90;;;11.60;95.90;;;;;;6157583;23;20465;-66
2021/05/24 22:47:34;;;;;;;8.32;4.30;;;11.60;96.00;;;;;;6183467;23;20104;-67
2021/05/24 22:50:08;;;;;;;6.78;4.15;;;11.60;95.90;;;;;;6183169;23;20016;-67
2021/05/24 22:52:35;;;;;;;7.65;4.25;;;11.60;95.80;;;;;;6183814;23;20125;-66
2021/05/24 22:55:01;;;;;;;5.13;3.75;;;11.60;95.80;;;;;;6183907;23;20458;-65
2021/05/24 22:57:26;;;;;;;4.70;3.70;;;11.50;95.60;;;;;;6183413;23;20001;-66
2021/05/24 22:59:52;;;;;;;4.22;3.33;;;11.50;95.70;;;;;;6183632;23;20001;-66
2021/05/24 23:02:19;;;;;;;5.40;4.30;;;11.50;95.60;;;;;;6183519;23;20005;-65
2021/05/24 23:04:46;;;;;;;6.50;4.10;;;11.50;95.70;;;;;;6182753;23;20048;-64
2021/05/24 23:07:12;;;;;;;6.55;4.50;;;11.50;95.70;;;;;;6183877;23;20011;-64
2021/05/24 23:09:37;;;;;;;4.78;4.13;;;11.60;95.80;;;;;;6182838;23;20083;-65
2021/05/24 23:12:03;;;;;;;5.75;3.88;;;11.60;95.70;;;;;;6183955;23;20473;-65
2021/05/24 23:14:29;;;;;;;4.10;3.70;;;11.60;95.70;;;;;;6183908;23;20076;-64
2021/05/24 23:16:54;;;;;;;4.88;3.88;;;11.60;95.60;;;;;;6182571;23;20016;-64
2021/05/24 23:19:20;;;;;;;4.63;3.63;;;11.50;95.60;;;;;;6183919;23;20025;-64
2021/05/24 23:21:45;;;;;;;5.47;3.80;;;11.50;95.70;;;;;;6183521;23;20383;-65
2021/05/24 23:24:11;;;;;;;4.05;3.65;;;11.50;95.80;;;;;;6182689;23;20311;-65
2021/05/24 23:26:37;;;;;;;6.20;3.42;;;11.50;95.70;;;;;;6183616;23;20005;-64
2021/05/24 23:29:02;;;;;;;5.63;3.55;;;11.50;95.70;;;;;;6156538;23;20004;-65
2021/05/24 23:31:28;;;;;;;3.38;3.05;;;11.40;95.60;;;;;;6156968;23;20020;-65
2021/05/24 23:33:53;;;;;;;5.32;3.72;;;11.40;95.90;;;;;;6183119;23;20021;-65
2021/05/24 23:36:19;;;;;;;4.70;3.80;;;11.40;95.70;;;;;;6183781;23;20040;-65
2021/05/24 23:38:44;;;;;;;6.15;3.70;;;11.40;95.70;;;;;;6182784;23;20031;-66
2021/05/24 23:41:10;;;;;;;4.28;3.67;;;11.40;95.80;;;;;;6183911;23;20428;-64
2021/05/24 23:43:35;;;;;;;5.70;3.60;;;11.40;95.60;;;;;;6183050;23;20008;-65
2021/05/24 23:46:01;;;;;;;4.72;3.60;;;11.30;95.70;;;;;;6182277;23;20009;-65
2021/05/24 23:48:26;;;;;;;4.38;3.80;;;11.30;95.80;;;;;;6183634;23;20074;-64
2021/05/24 23:50:52;;;;;;;7.15;4.35;;;11.30;95.70;;;;;;6182288;23;20013;-65
2021/05/24 23:53:18;;;;;;;8.27;4.00;;;11.30;95.80;;;;;;6182322;23;20092;-66
2021/05/24 23:55:43;;;;;;;7.57;4.50;;;11.30;95.70;;;;;;6183231;23;20381;-66
2021/05/24 23:58:10;;;;;;;7.20;4.53;;;11.20;95.70;;;;;;6182991;23;20001;-66
